Gillette Campbell County Airport
KGCC : now visible

Airfield :











YOU CAN JOIN US ON...

 
LOGIN :

Register | Disclaimer

   EN    FR    IT 

 









Legend :    VFR   Marginal VFR   IFR   Intensive IFR   Very Intensive IFR
Visi :
Ceiling :
>= 8 km
>= 3000ft
5 to 8 km
1000 to 3000 ft
1500m to 5 km
500 to 1000 ft
800 to 1500m
200 to 500 ft
< 800m
< 200 ft
Symbols :   Thunderstorms  Fog  Heavy snow  Heavy precipitations  Wind > 20 kt






- Airport Elevation : 4365 ft


KGCC - Gillette Campbell County

CURRENT METAR :
  • 110153Z AUTO 01009KT 10SM CLR 27/06 A2996 RMK AO2 SLP100 T02670056

EXPIRED METARs :
  • 110053Z AUTO 02010KT 10SM CLR 30/06 A2997 RMK AO2 SLP102 T03000061
  • 102353Z AUTO 36011G17KT 10SM CLR 31/06 A2997 RMK AO2 SLP107 T03110061 10322 20267 56010

TAF KGCC
Valid from the 11 at 00:00 until the 12 at 00:00 UTC


102325Z 1100/1124 VRB05KT P6SM SKC
FM110600 20008KT P6SM SCT100
KZDV FIR / North America



MET'MAP, your aeronautical weather chart ! - Copyright ORBIFLY December 2007 - Disclaimer

ORBIFLY MET'MAP TEAM :

Programming & Development : Alexandra Zaïnal
Concept & original design : Baudouin d'Aumeries
Assistance for programming : Marc-Olivier Méhu
Technical & hardware support : Manuel Goepfert

Contact : metmap@orbifly.com




SOURCES & CREDITS :

   NOAA       Earth
Advisory